Time;durP1;ratioP1;P1;durP2;ratioP2;P2;SDS_P1;SDS_P2;PMS_P1;PMS_P2;Temp;Humidity;BMP_temperature;BMP_pressure;BME280_temperature;BME280_humidity;BME280_pressure;Samples;Min_cycle;Max_cycle;Signal;HPM_P1;HPM_P2
2021/05/28 00:00:27;;;;;;;3.33;2.30;;;;;;;;;;1726613;82;20941;-60
2021/05/28 00:02:53;;;;;;;4.15;2.42;;;;;;;;;;1716123;82;21005;-57
2021/05/28 00:05:19;;;;;;;3.55;2.50;;;;;;;;;;1731690;82;20966;-59
2021/05/28 00:07:46;;;;;;;4.15;2.95;;;;;;;;;;1727828;81;20944;-57
2021/05/28 00:10:14;;;;;;;6.78;3.52;;;;;;;;;;1722105;81;21041;-58
2021/05/28 00:12:40;;;;;;;3.50;2.58;;;;;;;;;;1731858;82;21630;-57
2021/05/28 00:15:11;;;;;;;5.92;2.75;;;;;;;;;;1735523;81;21103;-58
2021/05/28 00:17:38;;;;;;;2.12;1.92;;;;;;;;;;1731127;82;20863;-60
2021/05/28 00:20:05;;;;;;;2.08;1.80;;;;;;;;;;1730907;82;20941;-57
2021/05/28 00:22:32;;;;;;;2.80;1.75;;;;;;;;;;1733518;81;21039;-57
2021/05/28 00:24:58;;;;;;;2.47;2.08;;;;;;;;;;1724529;81;21563;-58
2021/05/28 00:27:29;;;;;;;2.40;1.98;;;;;;;;;;1722359;82;21149;-58
2021/05/28 00:29:56;;;;;;;3.00;1.82;;;;;;;;;;1712166;83;21603;-59
2021/05/28 00:32:23;;;;;;;2.95;2.10;;;;;;;;;;1707481;83;21052;-58
2021/05/28 00:34:50;;;;;;;2.22;1.90;;;;;;;;;;1703892;83;20944;-58
2021/05/28 00:37:35;;;;;;;2.87;2.08;;;;;;;;;;1780446;79;20988;-56
2021/05/28 00:40:01;;;;;;;3.58;1.90;;;;;;;;;;1771298;80;21734;-57
2021/05/28 00:42:28;;;;;;;3.58;1.87;;;;;;;;;;1772271;79;20996;-58
2021/05/28 00:44:54;;;;;;;1.70;1.57;;;;;;;;;;1767039;80;20900;-58
2021/05/28 00:47:20;;;;;;;1.55;1.40;;;;;;;;;;1789674;80;21035;-57
2021/05/28 00:49:46;;;;;;;4.17;1.75;;;;;;;;;;1782576;80;21035;-58
2021/05/28 00:52:13;;;;;;;2.20;1.45;;;;;;;;;;1789942;80;21786;-57
2021/05/28 00:54:41;;;;;;;2.72;1.50;;;;;;;;;;1788379;80;21007;-57
2021/05/28 00:57:07;;;;;;;2.15;1.60;;;;;;;;;;1789399;80;20987;-58
2021/05/28 00:59:34;;;;;;;3.40;2.05;;;;;;;;;;1772240;80;21043;-58
2021/05/28 01:02:00;;;;;;;2.70;2.50;;;;;;;;;;1781171;80;21030;-57
2021/05/28 01:04:27;;;;;;;3.05;2.60;;;;;;;;;;1785237;79;21085;-57
2021/05/28 01:06:53;;;;;;;4.87;2.80;;;;;;;;;;1798981;79;21529;-57
2021/05/28 01:09:20;;;;;;;5.08;3.72;;;;;;;;;;1798267;79;21007;-57
2021/05/28 01:11:47;;;;;;;9.83;4.70;;;;;;;;;;1798139;79;20872;-58
2021/05/28 01:14:14;;;;;;;7.95;4.70;;;;;;;;;;1799237;79;20983;-59
2021/05/28 01:16:42;;;;;;;4.87;4.37;;;;;;;;;;1798754;79;20920;-58
2021/05/28 01:19:08;;;;;;;3.20;2.90;;;;;;;;;;1797309;79;20975;-57
2021/05/28 01:21:35;;;;;;;4.67;3.20;;;;;;;;;;1795092;79;21598;-58
2021/05/28 01:24:02;;;;;;;6.17;2.35;;;;;;;;;;1776310;79;21039;-57
2021/05/28 01:26:29;;;;;;;3.37;2.02;;;;;;;;;;1797513;79;21613;-55
2021/05/28 01:28:55;;;;;;;3.47;1.87;;;;;;;;;;1796467;79;21135;-57
2021/05/28 01:31:22;;;;;;;1.70;1.55;;;;;;;;;;1782320;79;20983;-59
2021/05/28 01:33:49;;;;;;;2.62;1.30;;;;;;;;;;1782996;80;21585;-58
2021/05/28 01:36:15;;;;;;;1.67;1.27;;;;;;;;;;1779847;80;21004;-60
2021/05/28 01:38:41;;;;;;;1.72;1.55;;;;;;;;;;1739178;81;20977;-56
2021/05/28 01:41:07;;;;;;;1.65;1.15;;;;;;;;;;1752401;81;21091;-57
2021/05/28 01:43:35;;;;;;;1.60;1.00;;;;;;;;;;1758954;81;21676;-58
2021/05/28 01:46:02;;;;;;;2.00;1.20;;;;;;;;;;1757274;81;21615;-58
2021/05/28 01:48:29;;;;;;;1.95;1.20;;;;;;;;;;1754220;81;21007;-58
2021/05/28 01:50:55;;;;;;;1.47;0.90;;;;;;;;;;1756833;81;20924;-58
2021/05/28 01:53:23;;;;;;;1.57;1.12;;;;;;;;;;1737793;81;21656;-60
2021/05/28 01:55:49;;;;;;;1.40;1.30;;;;;;;;;;1758934;81;21608;-58
2021/05/28 01:58:18;;;;;;;2.33;1.30;;;;;;;;;;1756883;81;21308;-58
2021/05/28 02:00:47;;;;;;;3.37;1.37;;;;;;;;;;1756080;81;20991;-58
2021/05/28 02:03:13;;;;;;;2.22;1.10;;;;;;;;;;1702684;84;21059;-59
2021/05/28 02:05:43;;;;;;;1.50;1.10;;;;;;;;;;1732570;82;21484;-58
2021/05/28 02:08:09;;;;;;;1.82;1.15;;;;;;;;;;1698652;84;21716;-59
2021/05/28 02:10:35;;;;;;;1.65;1.40;;;;;;;;;;1705244;82;20957;-59
2021/05/28 02:13:02;;;;;;;1.55;1.40;;;;;;;;;;1721227;82;20989;-59
2021/05/28 02:15:29;;;;;;;2.87;1.35;;;;;;;;;;1732911;82;20990;-57
2021/05/28 02:17:55;;;;;;;2.40;2.15;;;;;;;;;;1733039;82;21084;-57
2021/05/28 02:20:21;;;;;;;2.50;2.30;;;;;;;;;;1712125;82;21053;-59
2021/05/28 02:22:48;;;;;;;1.70;1.40;;;;;;;;;;1703681;82;21515;-58
2021/05/28 02:25:14;;;;;;;1.72;1.62;;;;;;;;;;1704331;82;21037;-57
2021/05/28 02:27:41;;;;;;;3.58;2.05;;;;;;;;;;1733084;82;20950;-58
2021/05/28 02:30:08;;;;;;;2.77;1.95;;;;;;;;;;1732540;82;21105;-58
2021/05/28 02:32:34;;;;;;;3.62;2.10;;;;;;;;;;1714344;82;21018;-57
2021/05/28 02:35:01;;;;;;;3.30;2.75;;;;;;;;;;1733229;82;20930;-59
2021/05/28 02:37:29;;;;;;;3.20;2.90;;;;;;;;;;1750384;80;21000;-58
2021/05/28 02:39:56;;;;;;;6.05;3.45;;;;;;;;;;1759059;81;20967;-59
2021/05/28 02:42:22;;;;;;;4.75;3.60;;;;;;;;;;1758398;81;21773;-57
2021/05/28 02:44:48;;;;;;;4.25;3.92;;;;;;;;;;1759090;81;20956;-58
2021/05/28 02:47:14;;;;;;;4.37;3.98;;;;;;;;;;1759333;81;20932;-58
2021/05/28 02:49:41;;;;;;;5.35;4.55;;;;;;;;;;1757990;81;20978;-60
2021/05/28 02:52:07;;;;;;;5.97;5.30;;;;;;;;;;1756955;81;21561;-59
2021/05/28 02:54:34;;;;;;;5.28;4.87;;;;;;;;;;1758113;81;21082;-58
2021/05/28 02:57:01;;;;;;;6.05;5.22;;;;;;;;;;1777349;79;20973;-58
2021/05/28 02:59:27;;;;;;;5.58;5.17;;;;;;;;;;1795535;78;21011;-58
2021/05/28 03:01:53;;;;;;;5.92;5.40;;;;;;;;;;1778087;80;20897;-60
2021/05/28 03:04:20;;;;;;;5.75;5.35;;;;;;;;;;1787904;80;21569;-58
2021/05/28 03:06:46;;;;;;;6.28;5.62;;;;;;;;;;1784930;79;21065;-57
2021/05/28 03:09:12;;;;;;;6.60;5.97;;;;;;;;;;1775429;80;21450;-58
2021/05/28 03:11:40;;;;;;;6.53;6.03;;;;;;;;;;1770851;80;20960;-56
2021/05/28 03:14:06;;;;;;;7.20;6.60;;;;;;;;;;1777916;80;20908;-58
2021/05/28 03:16:33;;;;;;;8.28;7.30;;;;;;;;;;1767216;80;21549;-57
2021/05/28 03:19:06;;;;;;;8.60;7.92;;;;;;;;;;1788631;80;21074;-57
2021/05/28 03:24:00;;;;;;;8.35;7.65;;;;;;;;;;1772573;80;20873;-57
2021/05/28 03:26:26;;;;;;;7.78;7.17;;;;;;;;;;1773319;80;20881;-57
2021/05/28 03:28:53;;;;;;;9.28;8.45;;;;;;;;;;1788774;79;21014;-57
2021/05/28 03:31:20;;;;;;;7.60;7.00;;;;;;;;;;1795168;79;21849;-58
2021/05/28 03:33:46;;;;;;;7.05;6.45;;;;;;;;;;1777860;79;20960;-58
2021/05/28 03:36:15;;;;;;;7.12;6.50;;;;;;;;;;1785875;79;20928;-59
2021/05/28 03:38:42;;;;;;;7.08;6.37;;;;;;;;;;1788403;78;20984;-59
2021/05/28 03:41:08;;;;;;;11.12;6.10;;;;;;;;;;1784927;78;21020;-59
2021/05/28 03:43:35;;;;;;;9.25;7.15;;;;;;;;;;1756373;81;21682;-60
2021/05/28 03:46:04;;;;;;;9.68;7.28;;;;;;;;;;1774457;79;20956;-58
2021/05/28 03:48:31;;;;;;;10.23;5.75;;;;;;;;;;1770434;79;21509;-59
2021/05/28 03:50:57;;;;;;;8.50;5.60;;;;;;;;;;1793987;79;21022;-58
2021/05/28 03:53:23;;;;;;;10.08;5.20;;;;;;;;;;1797053;79;20979;-59
2021/05/28 03:55:51;;;;;;;5.87;4.45;;;;;;;;;;1785729;79;20929;-59
2021/05/28 03:58:17;;;;;;;8.00;4.40;;;;;;;;;;1786521;79;21565;-59
2021/05/28 04:00:43;;;;;;;16.20;5.08;;;;;;;;;;1781017;79;20956;-59
2021/05/28 04:03:10;;;;;;;9.63;5.78;;;;;;;;;;1783885;79;21078;-62
2021/05/28 04:05:36;;;;;;;9.88;5.28;;;;;;;;;;1787049;79;20991;-59
2021/05/28 04:08:03;;;;;;;8.50;4.70;;;;;;;;;;1790936;79;21069;-58
2021/05/28 04:10:30;;;;;;;6.60;5.53;;;;;;;;;;1774084;79;21027;-60
2021/05/28 04:12:57;;;;;;;9.50;5.22;;;;;;;;;;1796154;79;20888;-59
2021/05/28 04:15:23;;;;;;;7.15;4.15;;;;;;;;;;1760912;80;21533;-58
2021/05/28 04:17:49;;;;;;;5.35;3.58;;;;;;;;;;1782911;79;21007;-58
2021/05/28 04:20:16;;;;;;;4.83;3.37;;;;;;;;;;1784016;79;21737;-58
2021/05/28 04:22:43;;;;;;;9.10;3.33;;;;;;;;;;1771798;79;21015;-58
2021/05/28 04:25:10;;;;;;;10.00;3.37;;;;;;;;;;1766246;80;20993;-58
2021/05/28 04:27:37;;;;;;;9.20;3.30;;;;;;;;;;1773515;79;21620;-61
2021/05/28 04:30:04;;;;;;;10.25;3.02;;;;;;;;;;1797232;79;20977;-58
2021/05/28 04:32:30;;;;;;;4.90;2.58;;;;;;;;;;1798343;79;21477;-57
2021/05/28 04:34:57;;;;;;;6.20;2.55;;;;;;;;;;1791367;79;21620;-58
2021/05/28 04:37:24;;;;;;;2.83;2.25;;;;;;;;;;1787942;79;20942;-59
2021/05/28 04:39:50;;;;;;;8.30;2.70;;;;;;;;;;1788507;78;21581;-58
2021/05/28 04:42:16;;;;;;;6.20;2.70;;;;;;;;;;1790642;78;21061;-57
2021/05/28 04:44:42;;;;;;;7.53;3.90;;;;;;;;;;1790403;78;21015;-60
2021/05/28 04:47:08;;;;;;;6.60;2.52;;;;;;;;;;1788424;78;21601;-60
2021/05/28 04:49:34;;;;;;;5.65;2.62;;;;;;;;;;1781897;79;20914;-58
2021/05/28 04:52:00;;;;;;;7.53;2.85;;;;;;;;;;1789443;80;20916;-59
2021/05/28 04:54:27;;;;;;;4.53;2.65;;;;;;;;;;1783122;80;21020;-59
2021/05/28 04:56:53;;;;;;;6.65;2.75;;;;;;;;;;1790028;78;21100;-59
2021/05/28 04:59:19;;;;;;;8.30;3.33;;;;;;;;;;1790617;78;22114;-58
2021/05/28 05:01:45;;;;;;;4.45;2.60;;;;;;;;;;1789402;78;20995;-56
2021/05/28 05:04:12;;;;;;;7.15;2.77;;;;;;;;;;1790546;78;20960;-57
2021/05/28 05:06:38;;;;;;;3.15;2.10;;;;;;;;;;1776098;80;20988;-55
2021/05/28 05:09:05;;;;;;;2.98;1.60;;;;;;;;;;1775317;79;21472;-56
2021/05/28 05:11:32;;;;;;;8.20;2.12;;;;;;;;;;1770625;79;20959;-58
2021/05/28 05:13:59;;;;;;;4.42;1.92;;;;;;;;;;1780247;78;21002;-58
2021/05/28 05:16:25;;;;;;;2.10;1.60;;;;;;;;;;1790427;78;20945;-58
2021/05/28 05:18:51;;;;;;;4.85;1.42;;;;;;;;;;1779173;80;20999;-59
2021/05/28 05:21:18;;;;;;;6.60;1.67;;;;;;;;;;1782429;78;21051;-56
2021/05/28 05:23:45;;;;;;;2.15;1.30;;;;;;;;;;1790572;80;20928;-59
2021/05/28 05:26:11;;;;;;;3.08;1.40;;;;;;;;;;1790752;80;21600;-57
2021/05/28 05:28:37;;;;;;;1.87;1.25;;;;;;;;;;1777326;80;20948;-56
2021/05/28 05:31:03;;;;;;;1.30;1.20;;;;;;;;;;1790210;78;20972;-56
2021/05/28 05:33:30;;;;;;;4.78;1.45;;;;;;;;;;1782727;80;21758;-57
2021/05/28 05:35:56;;;;;;;1.30;1.20;;;;;;;;;;1782771;80;20960;-58
2021/05/28 05:38:22;;;;;;;1.52;1.20;;;;;;;;;;1790581;78;21071;-57
2021/05/28 05:40:48;;;;;;;7.58;1.72;;;;;;;;;;1768766;80;20981;-56
2021/05/28 05:43:14;;;;;;;1.95;1.42;;;;;;;;;;1733352;82;21821;-59
2021/05/28 05:45:41;;;;;;;5.40;1.60;;;;;;;;;;1763320;81;21080;-57
2021/05/28 05:48:08;;;;;;;6.67;1.55;;;;;;;;;;1761653;81;20984;-57
2021/05/28 05:50:34;;;;;;;2.27;1.55;;;;;;;;;;1796891;79;20932;-57
2021/05/28 05:53:00;;;;;;;1.72;1.50;;;;;;;;;;1775475;79;20963;-58
2021/05/28 05:55:26;;;;;;;3.70;1.70;;;;;;;;;;1779031;79;21568;-60
2021/05/28 05:57:53;;;;;;;7.53;2.05;;;;;;;;;;1778465;79;21083;-57
2021/05/28 06:00:20;;;;;;;1.85;1.20;;;;;;;;;;1798255;79;20999;-61
2021/05/28 06:02:46;;;;;;;2.40;1.20;;;;;;;;;;1799084;79;21040;-58
2021/05/28 06:05:14;;;;;;;3.27;1.25;;;;;;;;;;1799384;79;21006;-56
2021/05/28 06:07:43;;;;;;;3.10;1.47;;;;;;;;;;1799189;79;21715;-61
2021/05/28 06:10:11;;;;;;;1.60;1.50;;;;;;;;;;1799416;79;20995;-56
2021/05/28 06:12:37;;;;;;;6.25;1.45;;;;;;;;;;1799560;78;20889;-56
2021/05/28 06:15:06;;;;;;;3.62;1.70;;;;;;;;;;1798168;79;21536;-58
2021/05/28 06:17:32;;;;;;;6.42;1.70;;;;;;;;;;1798331;78;21048;-64
2021/05/28 06:19:58;;;;;;;4.42;1.30;;;;;;;;;;1798352;78;21066;-62
2021/05/28 06:22:25;;;;;;;3.90;1.50;;;;;;;;;;1798890;78;21066;-56
2021/05/28 06:24:52;;;;;;;2.65;1.40;;;;;;;;;;1797607;78;21011;-59
2021/05/28 06:27:18;;;;;;;1.92;1.35;;;;;;;;;;1782124;79;20976;-57
2021/05/28 06:29:44;;;;;;;3.60;1.25;;;;;;;;;;1781802;79;20932;-58
2021/05/28 06:32:10;;;;;;;5.10;2.27;;;;;;;;;;1787599;79;20956;-58
2021/05/28 06:34:37;;;;;;;2.17;1.60;;;;;;;;;;1787534;78;21673;-57
2021/05/28 06:37:04;;;;;;;1.47;1.17;;;;;;;;;;1785095;78;21070;-59
2021/05/28 06:39:30;;;;;;;1.65;1.17;;;;;;;;;;1785694;78;21603;-60
2021/05/28 06:41:56;;;;;;;3.10;1.20;;;;;;;;;;1783062;79;20932;-58
2021/05/28 06:44:25;;;;;;;10.15;2.27;;;;;;;;;;1789533;79;20996;-58
2021/05/28 06:46:52;;;;;;;3.40;1.40;;;;;;;;;;1780755;79;21086;-58
2021/05/28 06:49:20;;;;;;;1.92;1.25;;;;;;;;;;1778243;80;21112;-56
2021/05/28 06:51:47;;;;;;;5.83;1.57;;;;;;;;;;1773546;80;21039;-59
2021/05/28 06:54:14;;;;;;;2.65;1.40;;;;;;;;;;1710941;83;21450;-58
2021/05/28 06:56:41;;;;;;;2.50;1.20;;;;;;;;;;1764848;79;21588;-57
2021/05/28 06:59:09;;;;;;;2.02;1.50;;;;;;;;;;1766449;80;21087;-58
2021/05/28 07:01:36;;;;;;;2.55;1.27;;;;;;;;;;1782598;80;21072;-57
2021/05/28 07:04:04;;;;;;;1.62;1.20;;;;;;;;;;1770352;80;20936;-59
2021/05/28 07:06:30;;;;;;;3.55;1.10;;;;;;;;;;1789888;79;21048;-57
2021/05/28 07:08:57;;;;;;;3.25;1.27;;;;;;;;;;1782743;80;21036;-58
2021/05/28 07:11:24;;;;;;;3.33;1.40;;;;;;;;;;1782732;80;21002;-56
2021/05/28 07:13:51;;;;;;;4.40;1.20;;;;;;;;;;1782719;80;21022;-59
2021/05/28 07:16:18;;;;;;;3.22;1.12;;;;;;;;;;1782738;80;21020;-58
2021/05/28 07:18:44;;;;;;;2.77;1.35;;;;;;;;;;1782684;80;20965;-57
2021/05/28 07:21:10;;;;;;;2.02;1.20;;;;;;;;;;1782963;80;21522;-55
2021/05/28 07:23:37;;;;;;;6.83;1.10;;;;;;;;;;1782875;80;21093;-57
2021/05/28 07:26:03;;;;;;;2.98;1.42;;;;;;;;;;1782910;80;21024;-57
2021/05/28 07:28:30;;;;;;;3.83;1.15;;;;;;;;;;1782863;80;21043;-58
2021/05/28 07:30:56;;;;;;;4.72;1.27;;;;;;;;;;1761239;80;20909;-57
2021/05/28 07:33:22;;;;;;;1.50;1.27;;;;;;;;;;1783249;80;20978;-58
2021/05/28 07:35:49;;;;;;;8.08;2.65;;;;;;;;;;1783373;80;21677;-56
2021/05/28 07:38:16;;;;;;;2.85;1.67;;;;;;;;;;1784713;78;21529;-56
2021/05/28 07:40:43;;;;;;;3.10;1.35;;;;;;;;;;1785644;80;20984;-57
2021/05/28 07:43:09;;;;;;;3.75;1.35;;;;;;;;;;1757524;80;20947;-57
2021/05/28 07:45:36;;;;;;;2.87;1.17;;;;;;;;;;1765019;79;21039;-60
2021/05/28 07:48:04;;;;;;;2.67;1.35;;;;;;;;;;1757423;80;21019;-57
2021/05/28 07:50:44;;;;;;;3.87;1.65;;;;;;;;;;1778185;79;20932;-60
2021/05/28 07:53:01;;;;;;;5.30;1.62;;;;;;;;;;1794140;79;20920;-57
2021/05/28 07:55:27;;;;;;;5.08;1.30;;;;;;;;;;1796482;79;20948;-57
2021/05/28 07:57:53;;;;;;;3.10;1.30;;;;;;;;;;1796678;79;20983;-57
2021/05/28 08:00:21;;;;;;;5.17;1.17;;;;;;;;;;1796425;79;21588;-55
2021/05/28 08:02:47;;;;;;;4.78;1.00;;;;;;;;;;1796508;79;21012;-56
2021/05/28 08:05:16;;;;;;;3.70;1.82;;;;;;;;;;1798866;79;20924;-60
2021/05/28 08:07:43;;;;;;;6.95;1.37;;;;;;;;;;1796587;79;20995;-60
2021/05/28 08:10:10;;;;;;;4.78;1.37;;;;;;;;;;1796168;79;45532;-59
2021/05/28 08:12:37;;;;;;;3.80;1.25;;;;;;;;;;1796560;79;21839;-58
2021/05/28 08:15:05;;;;;;;1.35;1.17;;;;;;;;;;1798806;79;20949;-58
2021/05/28 08:17:31;;;;;;;1.42;1.30;;;;;;;;;;1796633;79;21011;-59
2021/05/28 08:19:59;;;;;;;4.45;1.12;;;;;;;;;;1796643;79;21011;-61
2021/05/28 08:22:25;;;;;;;5.40;4.78;;;;;;;;;;1796893;79;20883;-57
2021/05/28 08:24:52;;;;;;;5.85;2.20;;;;;;;;;;1796604;79;22229;-59
2021/05/28 08:27:18;;;;;;;3.25;1.47;;;;;;;;;;1796588;79;20885;-55
2021/05/28 08:29:44;;;;;;;2.42;1.10;;;;;;;;;;1798204;79;20973;-58
2021/05/28 08:32:10;;;;;;;3.67;1.10;;;;;;;;;;1797445;79;21043;-57
2021/05/28 08:34:36;;;;;;;3.30;1.35;;;;;;;;;;1784439;79;20896;-57
2021/05/28 08:37:04;;;;;;;8.28;1.57;;;;;;;;;;1749712;81;21575;-57
2021/05/28 08:39:31;;;;;;;5.95;1.45;;;;;;;;;;1762839;80;21638;-59
2021/05/28 08:41:57;;;;;;;1.30;0.65;;;;;;;;;;1761577;81;21016;-56
2021/05/28 08:44:25;;;;;;;2.65;0.82;;;;;;;;;;1762023;81;21033;-57
2021/05/28 08:46:52;;;;;;;5.17;0.98;;;;;;;;;;1746251;81;21032;-57
2021/05/28 08:49:18;;;;;;;4.10;1.07;;;;;;;;;;1757019;81;21075;-57
2021/05/28 08:51:44;;;;;;;2.33;0.85;;;;;;;;;;1762076;81;20942;-56
2021/05/28 08:54:12;;;;;;;3.98;1.20;;;;;;;;;;1761879;81;20965;-59
2021/05/28 08:56:38;;;;;;;2.25;1.00;;;;;;;;;;1762074;81;21598;-57
2021/05/28 08:59:05;;;;;;;2.52;1.50;;;;;;;;;;1762058;81;21042;-57
2021/05/28 09:01:31;;;;;;;3.58;1.45;;;;;;;;;;1762106;81;21049;-56
2021/05/28 09:04:03;;;;;;;1.95;0.93;;;;;;;;;;1762133;81;20986;-56
2021/05/28 09:06:45;;;;;;;1.65;0.72;;;;;;;;;;1761947;81;21574;-61
2021/05/28 09:09:14;;;;;;;4.65;1.30;;;;;;;;;;1762132;81;20973;-57
2021/05/28 09:11:53;;;;;;;3.22;1.20;;;;;;;;;;1761930;81;20926;-57
2021/05/28 09:17:22;;;;;;;2.45;1.00;;;;;;;;;;1678477;84;21029;-56
2021/05/28 09:19:54;;;;;;;3.22;0.85;;;;;;;;;;1653125;85;21045;-55
2021/05/28 09:22:20;;;;;;;2.47;1.02;;;;;;;;;;1649310;85;21365;-56
2021/05/28 09:24:47;;;;;;;1.47;0.78;;;;;;;;;;1677121;84;20987;-58
2021/05/28 09:27:23;;;;;;;3.02;0.93;;;;;;;;;;1644107;85;21678;-60
2021/05/28 09:30:12;;;;;;;6.95;1.22;;;;;;;;;;1642839;85;21588;-58
2021/05/28 09:32:42;;;;;;;2.62;0.90;;;;;;;;;;1643902;85;21027;-58
2021/05/28 09:35:09;;;;;;;3.10;0.70;;;;;;;;;;1644747;85;21521;-59
2021/05/28 09:37:48;;;;;;;5.50;1.55;;;;;;;;;;1645428;85;21548;-61
2021/05/28 09:40:19;;;;;;;3.52;1.07;;;;;;;;;;1634399;85;21709;-63
2021/05/28 09:42:54;;;;;;;2.90;0.98;;;;;;;;;;1643825;85;21107;-60
2021/05/28 09:45:30;;;;;;;1.70;0.97;;;;;;;;;;1644055;85;21586;-57
2021/05/28 09:47:55;;;;;;;2.62;2.15;;;;;;;;;;1643647;85;21007;-59
2021/05/28 09:50:21;;;;;;;1.92;1.25;;;;;;;;;;1643747;85;20948;-55
2021/05/28 09:52:49;;;;;;;2.55;1.00;;;;;;;;;;1643310;85;21251;-60
2021/05/28 09:55:15;;;;;;;3.80;0.82;;;;;;;;;;1643651;85;20960;-57
2021/05/28 09:57:48;;;;;;;1.85;1.15;;;;;;;;;;1643506;85;20964;-62
2021/05/28 10:00:28;;;;;;;1.35;0.90;;;;;;;;;;1643695;85;21038;-59
2021/05/28 10:03:18;;;;;;;0.80;0.65;;;;;;;;;;1643261;85;21071;-61
2021/05/28 10:05:52;;;;;;;3.08;1.02;;;;;;;;;;1643552;85;21707;-60
2021/05/28 10:08:21;;;;;;;1.57;1.47;;;;;;;;;;1668152;85;20993;-60
2021/05/28 10:10:49;;;;;;;1.22;0.80;;;;;;;;;;1676456;84;21057;-62
2021/05/28 10:13:19;;;;;;;2.58;2.25;;;;;;;;;;1643419;85;21635;-60
2021/05/28 10:15:47;;;;;;;2.25;2.02;;;;;;;;;;1664285;85;20985;-62
2021/05/28 10:18:14;;;;;;;2.12;1.92;;;;;;;;;;1659732;85;21042;-59
2021/05/28 10:20:42;;;;;;;3.20;1.37;;;;;;;;;;1660262;85;21022;-58
2021/05/28 10:23:09;;;;;;;3.00;1.12;;;;;;;;;;1658528;85;21635;-59
2021/05/28 10:25:36;;;;;;;0.98;0.98;;;;;;;;;;1658110;85;21063;-59
2021/05/28 10:28:05;;;;;;;2.83;0.93;;;;;;;;;;1661204;85;21033;-58
2021/05/28 10:30:39;;;;;;;1.30;1.20;;;;;;;;;;1663476;85;21652;-59
2021/05/28 10:33:24;;;;;;;1.87;1.00;;;;;;;;;;1617678;86;21056;-59
2021/05/28 10:35:56;;;;;;;3.27;1.17;;;;;;;;;;1668867;84;21100;-60
2021/05/28 10:38:38;;;;;;;3.47;1.37;;;;;;;;;;1670929;84;22343;-60
2021/05/28 10:41:08;;;;;;;4.55;1.57;;;;;;;;;;1674299;84;21222;-58
2021/05/28 10:43:38;;;;;;;3.27;1.62;;;;;;;;;;1641378;86;21864;-57
2021/05/28 10:46:06;;;;;;;1.95;1.27;;;;;;;;;;1668215;84;21067;-57
2021/05/28 10:48:43;;;;;;;2.83;1.45;;;;;;;;;;1654724;85;21044;-58
2021/05/28 10:51:16;;;;;;;1.75;1.15;;;;;;;;;;1640460;86;21015;-57
2021/05/28 10:53:55;;;;;;;3.92;1.50;;;;;;;;;;1669782;85;21040;-58
2021/05/28 10:56:25;;;;;;;2.67;1.40;;;;;;;;;;1670141;85;21096;-57
2021/05/28 10:59:01;;;;;;;2.08;1.50;;;;;;;;;;1669478;85;21099;-59
2021/05/28 11:01:57;;;;;;;1.92;1.27;;;;;;;;;;1686336;84;21038;-58
2021/05/28 11:04:31;;;;;;;2.87;2.22;;;;;;;;;;1693500;84;21118;-58
2021/05/28 11:07:03;;;;;;;1.75;1.17;;;;;;;;;;1690894;84;21028;-60
2021/05/28 11:09:50;;;;;;;3.92;1.15;;;;;;;;;;1693723;84;21087;-57
2021/05/28 11:12:16;;;;;;;;;;;;;;;;;;1685091;84;21005;-57
2021/05/28 11:15:02;;;;;;;;;;;;;;;;;;1674212;84;20132;-57
2021/05/28 11:17:28;;;;;;;4.15;0.95;;;;;;;;;;1671016;84;20204;-59
2021/05/28 11:19:57;;;;;;;1.47;0.70;;;;;;;;;;1670785;84;21143;-59
2021/05/28 11:22:37;;;;;;;2.55;0.78;;;;;;;;;;1694707;84;21115;-59
2021/05/28 11:25:06;;;;;;;1.12;1.02;;;;;;;;;;1695867;83;20873;-59
2021/05/28 11:27:36;;;;;;;0.80;0.80;;;;;;;;;;1695895;84;21080;-61
2021/05/28 11:30:06;;;;;;;2.27;0.85;;;;;;;;;;1687870;84;21089;-64
2021/05/28 11:32:43;;;;;;;2.10;1.10;;;;;;;;;;1672661;84;21661;-60
2021/05/28 11:35:30;;;;;;;2.15;1.37;;;;;;;;;;1661293;84;21778;-58
2021/05/28 11:38:01;;;;;;;5.90;2.92;;;;;;;;;;1667660;84;21054;-59
2021/05/28 11:40:37;;;;;;;8.40;2.42;;;;;;;;;;1669398;84;21098;-58
2021/05/28 11:43:12;;;;;;;8.25;2.30;;;;;;;;;;1664754;84;21326;-57
2021/05/28 11:45:40;;;;;;;4.95;1.70;;;;;;;;;;1668662;84;20966;-60
2021/05/28 11:48:14;;;;;;;9.63;2.12;;;;;;;;;;1674496;84;21103;-60
2021/05/28 11:50:42;;;;;;;3.90;1.32;;;;;;;;;;1670966;84;21653;-58
2021/05/28 11:53:09;;;;;;;6.62;1.40;;;;;;;;;;1669523;84;21317;-60
2021/05/28 11:55:47;;;;;;;5.05;1.77;;;;;;;;;;1668003;84;21076;-57
2021/05/28 11:58:14;;;;;;;6.72;2.77;;;;;;;;;;1674887;84;21088;-58
2021/05/28 12:00:41;;;;;;;5.08;1.62;;;;;;;;;;1670960;84;21080;-58
2021/05/28 12:03:07;;;;;;;6.10;1.27;;;;;;;;;;1671011;84;21591;-58
2021/05/28 12:05:39;;;;;;;7.55;1.75;;;;;;;;;;1671396;84;21089;-56
2021/05/28 12:08:15;;;;;;;4.47;1.50;;;;;;;;;;1669109;84;21033;-59
2021/05/28 12:10:48;;;;;;;3.67;1.60;;;;;;;;;;1665127;84;21082;-60
2021/05/28 12:13:19;;;;;;;5.70;1.05;;;;;;;;;;1668538;84;21689;-58
2021/05/28 12:15:56;;;;;;;2.90;1.30;;;;;;;;;;1657102;86;21007;-57
2021/05/28 12:18:30;;;;;;;4.62;1.17;;;;;;;;;;1646504;85;21418;-58
2021/05/28 12:21:08;;;;;;;4.00;1.20;;;;;;;;;;1642436;86;21729;-60
2021/05/28 12:23:39;;;;;;;5.55;1.90;;;;;;;;;;1646253;85;21035;-59
2021/05/28 12:26:12;;;;;;;3.20;2.08;;;;;;;;;;1643672;86;22305;-59
2021/05/28 12:28:39;;;;;;;4.40;2.25;;;;;;;;;;1646378;85;20992;-58
2021/05/28 12:31:16;;;;;;;4.42;1.90;;;;;;;;;;1651307;86;21651;-61
2021/05/28 12:33:45;;;;;;;6.90;2.55;;;;;;;;;;1692605;84;21521;-55
2021/05/28 12:36:12;;;;;;;6.67;2.80;;;;;;;;;;1698077;84;21004;-56
2021/05/28 12:38:41;;;;;;;2.50;2.10;;;;;;;;;;1691932;84;21047;-53
2021/05/28 12:41:12;;;;;;;5.10;1.60;;;;;;;;;;1689235;84;21051;-56
2021/05/28 12:43:42;;;;;;;5.00;1.90;;;;;;;;;;1675912;84;21098;-63
2021/05/28 12:46:19;;;;;;;5.47;2.65;;;;;;;;;;1678164;84;20999;-61
2021/05/28 12:48:47;;;;;;;9.78;3.80;;;;;;;;;;1675603;84;22353;-60
2021/05/28 12:51:13;;;;;;;9.05;4.00;;;;;;;;;;1675650;84;21712;-61
2021/05/28 12:53:44;;;;;;;10.40;2.83;;;;;;;;;;1675040;85;20994;-60
2021/05/28 12:56:19;;;;;;;5.65;2.40;;;;;;;;;;1675017;85;20982;-63
2021/05/28 12:58:49;;;;;;;7.65;1.80;;;;;;;;;;1655717;85;21690;-60
2021/05/28 13:01:16;;;;;;;5.55;2.25;;;;;;;;;;1674091;85;21073;-61
2021/05/28 13:03:51;;;;;;;7.67;3.42;;;;;;;;;;1674673;85;21687;-60
2021/05/28 13:06:36;;;;;;;5.37;4.87;;;;;;;;;;1661442;85;20981;-61
2021/05/28 13:09:05;;;;;;;4.90;4.50;;;;;;;;;;1675672;85;21066;-60
2021/05/28 13:11:53;;;;;;;8.75;4.47;;;;;;;;;;1675439;85;21666;-60
2021/05/28 13:14:42;;;;;;;10.20;3.50;;;;;;;;;;1675354;85;21035;-61
2021/05/28 13:17:17;;;;;;;5.12;4.40;;;;;;;;;;1695115;84;21679;-60
2021/05/28 13:19:48;;;;;;;4.67;4.25;;;;;;;;;;1675145;85;20941;-60
2021/05/28 13:22:31;;;;;;;8.08;5.72;;;;;;;;;;1675334;85;21043;-60
2021/05/28 13:25:18;;;;;;;5.30;4.70;;;;;;;;;;1651915;85;21590;-60
2021/05/28 13:27:45;;;;;;;3.55;2.37;;;;;;;;;;1657658;85;20933;-59
2021/05/28 13:30:12;;;;;;;4.58;1.60;;;;;;;;;;1675480;85;21086;-59
2021/05/28 13:32:40;;;;;;;10.65;2.33;;;;;;;;;;1675208;85;20985;-60
2021/05/28 13:35:09;;;;;;;3.35;1.45;;;;;;;;;;1675387;85;21116;-61
2021/05/28 13:37:36;;;;;;;4.45;1.67;;;;;;;;;;1675190;85;21033;-59
2021/05/28 13:40:06;;;;;;;3.65;1.50;;;;;;;;;;1689945;84;21012;-60
2021/05/28 13:42:33;;;;;;;2.75;1.47;;;;;;;;;;1679583;84;21148;-60
2021/05/28 13:44:59;;;;;;;5.90;1.70;;;;;;;;;;1675434;85;21702;-60
2021/05/28 13:47:25;;;;;;;6.47;1.15;;;;;;;;;;1675288;85;21005;-60
2021/05/28 13:49:52;;;;;;;4.97;1.52;;;;;;;;;;1675304;85;21045;-61
2021/05/28 13:52:18;;;;;;;5.45;1.60;;;;;;;;;;1675260;85;21654;-60
2021/05/28 13:54:45;;;;;;;4.15;1.70;;;;;;;;;;1675324;85;21169;-61
2021/05/28 13:57:12;;;;;;;6.50;1.32;;;;;;;;;;1675198;85;21001;-60
2021/05/28 13:59:38;;;;;;;6.95;1.45;;;;;;;;;;1675479;85;21449;-60
2021/05/28 14:02:05;;;;;;;2.92;1.30;;;;;;;;;;1675298;85;21002;-60
2021/05/28 14:04:31;;;;;;;2.90;1.10;;;;;;;;;;1675271;85;21053;-61
2021/05/28 14:07:00;;;;;;;4.60;1.25;;;;;;;;;;1692430;84;21590;-59
2021/05/28 14:09:27;;;;;;;7.50;1.98;;;;;;;;;;1675351;85;20979;-60
2021/05/28 14:11:55;;;;;;;6.92;1.30;;;;;;;;;;1675411;84;21005;-60
2021/05/28 14:14:21;;;;;;;7.35;2.15;;;;;;;;;;1675366;85;21418;-58
2021/05/28 14:16:47;;;;;;;4.20;1.92;;;;;;;;;;1675015;85;21023;-60
2021/05/28 14:19:14;;;;;;;3.42;1.45;;;;;;;;;;1672484;85;21824;-60
2021/05/28 14:21:40;;;;;;;4.53;1.20;;;;;;;;;;1672722;85;20932;-59
2021/05/28 14:24:07;;;;;;;3.37;0.90;;;;;;;;;;1672574;85;21534;-61
2021/05/28 14:26:33;;;;;;;4.22;1.32;;;;;;;;;;1672596;85;21007;-62
2021/05/28 14:28:59;;;;;;;1.75;1.40;;;;;;;;;;1672579;85;21764;-60
2021/05/28 14:31:26;;;;;;;6.95;1.50;;;;;;;;;;1672834;85;21864;-60
2021/05/28 14:33:55;;;;;;;3.10;1.35;;;;;;;;;;1672782;85;20956;-61
2021/05/28 14:36:22;;;;;;;7.42;1.27;;;;;;;;;;1672748;84;21099;-60
2021/05/28 14:38:50;;;;;;;7.12;1.15;;;;;;;;;;1672642;85;21538;-60
2021/05/28 14:41:17;;;;;;;1.80;1.20;;;;;;;;;;1672337;85;21176;-62
2021/05/28 14:43:46;;;;;;;3.60;1.10;;;;;;;;;;1672330;85;21083;-59
2021/05/28 14:46:13;;;;;;;2.95;1.10;;;;;;;;;;1672723;85;20952;-62
2021/05/28 14:48:40;;;;;;;6.85;1.70;;;;;;;;;;1672733;85;20940;-59
2021/05/28 14:51:07;;;;;;;3.87;1.47;;;;;;;;;;1672876;85;21003;-59
2021/05/28 14:53:33;;;;;;;6.00;1.80;;;;;;;;;;1672761;85;20944;-60
2021/05/28 14:56:00;;;;;;;2.08;1.60;;;;;;;;;;1672753;85;21117;-63